Time;durP1;ratioP1;P1;durP2;ratioP2;P2;SDS_P1;SDS_P2;PMS_P1;PMS_P2;Temp;Humidity;BMP_temperature;BMP_pressure;BME280_temperature;BME280_humidity;BME280_pressure;Samples;Min_cycle;Max_cycle;Signal;HPM_P1;HPM_P2
2021/10/23 00:01:32;;;;;;;27.45;13.15;;;12.10;57.10;;;;;;5055089;28;20245;-39
2021/10/23 00:03:58;;;;;;;29.50;13.20;;;12.00;57.10;;;;;;5055828;28;20021;-41
2021/10/23 00:06:24;;;;;;;28.10;12.52;;;11.90;57.20;;;;;;5055348;28;20028;-39
2021/10/23 00:08:49;;;;;;;22.50;12.40;;;11.90;57.50;;;;;;5055526;28;20409;-38
2021/10/23 00:11:15;;;;;;;25.45;11.77;;;11.80;57.60;;;;;;5055082;28;20033;-34
2021/10/23 00:13:41;;;;;;;26.80;12.25;;;11.80;57.90;;;;;;5055596;28;20036;-33
2021/10/23 00:16:07;;;;;;;23.95;13.00;;;11.70;57.90;;;;;;5055291;28;20021;-34
2021/10/23 00:18:33;;;;;;;20.80;11.70;;;11.70;58.10;;;;;;5055502;28;20063;-41
2021/10/23 00:20:59;;;;;;;24.77;12.40;;;11.70;58.10;;;;;;5055637;28;20101;-40
2021/10/23 00:23:24;;;;;;;27.38;12.68;;;11.60;58.20;;;;;;5055524;28;20433;-34
2021/10/23 00:25:50;;;;;;;28.40;12.98;;;11.60;58.30;;;;;;5055631;28;20025;-35
2021/10/23 00:28:16;;;;;;;27.77;12.45;;;11.60;59.00;;;;;;5055530;28;20037;-36
2021/10/23 00:30:41;;;;;;;23.23;12.48;;;11.60;58.50;;;;;;5055566;28;20029;-35
2021/10/23 00:33:07;;;;;;;29.95;13.43;;;11.50;58.40;;;;;;5055366;28;20040;-35
2021/10/23 00:35:33;;;;;;;24.95;12.52;;;11.50;58.50;;;;;;5055441;28;20037;-40
2021/10/23 00:38:00;;;;;;;25.63;12.40;;;11.50;58.60;;;;;;5055016;28;20029;-39
2021/10/23 00:40:27;;;;;;;27.10;12.85;;;11.50;58.70;;;;;;5057188;28;20033;-39
2021/10/23 00:42:53;;;;;;;31.17;13.38;;;11.50;58.80;;;;;;5059043;28;20055;-35
2021/10/23 00:45:20;;;;;;;23.85;12.57;;;11.50;58.90;;;;;;5058897;28;20060;-34
2021/10/23 00:47:46;;;;;;;31.38;13.02;;;11.40;58.80;;;;;;5058908;28;20116;-35
2021/10/23 00:50:12;;;;;;;20.63;11.93;;;11.40;58.90;;;;;;5058598;28;20075;-39
2021/10/23 00:52:37;;;;;;;26.33;12.85;;;11.40;59.00;;;;;;5058507;28;20057;-34
2021/10/23 00:55:06;;;;;;;30.60;14.38;;;11.40;59.00;;;;;;5058691;28;20029;-40
2021/10/23 00:57:32;;;;;;;28.92;12.80;;;11.40;59.20;;;;;;5058437;28;20505;-35
2021/10/23 00:59:58;;;;;;;27.88;13.20;;;11.40;59.20;;;;;;5058875;28;20052;-35
2021/10/23 01:02:24;;;;;;;30.73;13.60;;;11.40;59.30;;;;;;5058706;28;20309;-39
2021/10/23 01:04:49;;;;;;;29.83;13.45;;;11.30;59.30;;;;;;5058818;28;20087;-34
2021/10/23 01:07:15;;;;;;;28.13;13.30;;;11.30;59.40;;;;;;5058323;28;20032;-35
2021/10/23 01:09:43;;;;;;;27.13;13.52;;;11.30;59.40;;;;;;5057312;28;20348;-40
2021/10/23 01:12:11;;;;;;;24.40;12.45;;;11.20;59.50;;;;;;5058432;28;20056;-36
2021/10/23 01:14:38;;;;;;;27.27;13.38;;;11.20;59.60;;;;;;5058020;28;20017;-42
2021/10/23 01:17:04;;;;;;;29.38;14.18;;;11.20;59.80;;;;;;5058325;28;20135;-39
2021/10/23 01:19:30;;;;;;;25.58;12.50;;;11.10;59.90;;;;;;5057938;28;20458;-35
2021/10/23 01:21:56;;;;;;;26.33;13.48;;;11.10;60.00;;;;;;5057969;28;20317;-39
2021/10/23 01:24:23;;;;;;;23.30;12.48;;;11.10;60.10;;;;;;5058349;28;20032;-36
2021/10/23 01:26:49;;;;;;;25.40;11.55;;;11.10;60.10;;;;;;5058134;28;20036;-39
2021/10/23 01:29:16;;;;;;;26.35;11.80;;;11.00;59.90;;;;;;5058187;28;20463;-40
2021/10/23 01:31:43;;;;;;;25.73;12.55;;;11.10;60.10;;;;;;5057804;28;20037;-40
2021/10/23 01:34:19;;;;;;;25.17;12.73;;;11.00;60.10;;;;;;5058138;28;20520;-33
2021/10/23 01:36:50;;;;;;;23.05;11.43;;;11.00;60.20;;;;;;5057865;28;20036;-38
2021/10/23 01:39:16;;;;;;;26.88;12.60;;;11.00;60.30;;;;;;5057789;28;20078;-40
2021/10/23 01:41:42;;;;;;;25.98;11.70;;;10.90;60.10;;;;;;5057531;28;20033;-40
2021/10/23 01:44:10;;;;;;;27.05;11.77;;;10.90;60.20;;;;;;5058272;28;20029;-34
2021/10/23 01:46:36;;;;;;;22.67;11.40;;;10.90;60.30;;;;;;5057356;28;20029;-34
2021/10/23 01:49:04;;;;;;;23.05;10.63;;;10.90;60.30;;;;;;5057770;28;20325;-33
2021/10/23 01:51:31;;;;;;;20.67;10.75;;;10.90;60.20;;;;;;5056914;28;20029;-33
2021/10/23 01:53:56;;;;;;;28.08;10.80;;;10.90;60.10;;;;;;5057861;28;20063;-34
2021/10/23 01:56:22;;;;;;;22.55;12.32;;;10.90;60.10;;;;;;5056958;28;20123;-33
2021/10/23 01:58:48;;;;;;;24.98;12.65;;;10.90;60.20;;;;;;5057726;28;20043;-34
2021/10/23 02:01:14;;;;;;;23.95;12.30;;;10.90;60.30;;;;;;5057137;28;20024;-34
2021/10/23 02:03:39;;;;;;;21.35;12.00;;;10.90;60.30;;;;;;5056558;28;20063;-39
2021/10/23 02:06:10;;;;;;;26.17;11.23;;;10.80;60.30;;;;;;5057479;28;20032;-35
2021/10/23 02:08:36;;;;;;;21.65;9.98;;;10.80;60.60;;;;;;5057510;28;20032;-40
2021/10/23 02:11:01;;;;;;;19.70;8.43;;;10.80;60.30;;;;;;5057123;28;20045;-34
2021/10/23 02:13:27;;;;;;;13.15;6.30;;;10.80;59.90;;;;;;5057239;28;20040;-41
2021/10/23 02:15:52;;;;;;;16.60;5.72;;;10.80;59.50;;;;;;5057110;28;20094;-34
2021/10/23 02:18:18;;;;;;;13.95;5.60;;;10.90;59.30;;;;;;5057100;28;20136;-34
2021/10/23 02:20:44;;;;;;;10.93;5.80;;;11.00;58.90;;;;;;5057338;28;20107;-40
2021/10/23 02:23:09;;;;;;;20.20;6.03;;;11.10;58.80;;;;;;5057140;28;20113;-34
2021/10/23 02:25:35;;;;;;;20.85;6.55;;;11.20;58.50;;;;;;5056925;28;20036;-34
2021/10/23 02:28:01;;;;;;;17.25;7.05;;;11.30;58.20;;;;;;5057127;28;20036;-39
2021/10/23 02:30:26;;;;;;;14.18;5.75;;;11.40;57.70;;;;;;5056806;28;20041;-35
2021/10/23 02:32:52;;;;;;;12.23;5.97;;;11.50;57.50;;;;;;5056729;28;20040;-39
2021/10/23 02:35:19;;;;;;;12.40;6.45;;;11.60;57.40;;;;;;5056993;28;20036;-35
2021/10/23 02:37:45;;;;;;;19.50;6.60;;;11.70;57.10;;;;;;5056785;28;20029;-35
2021/10/23 02:40:11;;;;;;;15.50;6.45;;;11.70;56.90;;;;;;5057034;28;20170;-39
2021/10/23 02:42:37;;;;;;;13.13;5.82;;;11.80;56.80;;;;;;5056317;28;20048;-35
2021/10/23 02:45:04;;;;;;;13.50;5.93;;;11.90;56.70;;;;;;5056513;28;20033;-36
2021/10/23 02:47:30;;;;;;;13.02;6.45;;;11.90;56.60;;;;;;5056521;28;20436;-40
2021/10/23 02:49:55;;;;;;;14.07;6.32;;;11.90;56.30;;;;;;5056407;28;20159;-40
2021/10/23 02:52:21;;;;;;;10.40;6.10;;;11.90;56.20;;;;;;5056393;28;20029;-36
2021/10/23 02:54:47;;;;;;;14.35;6.28;;;12.00;56.00;;;;;;5056298;28;20064;-40
2021/10/23 02:57:12;;;;;;;16.35;6.57;;;12.00;56.00;;;;;;5055971;28;20114;-35
2021/10/23 02:59:40;;;;;;;16.35;6.05;;;12.00;55.90;;;;;;5056495;28;20305;-35
2021/10/23 03:02:06;;;;;;;13.55;5.93;;;12.10;55.80;;;;;;5055689;28;20033;-40
2021/10/23 03:04:31;;;;;;;11.75;5.20;;;12.10;55.70;;;;;;5056137;28;20021;-39
2021/10/23 03:06:57;;;;;;;13.88;6.45;;;12.10;55.50;;;;;;5055976;28;20064;-35
2021/10/23 03:09:23;;;;;;;18.75;7.00;;;12.10;55.30;;;;;;5055958;28;20029;-40
2021/10/23 03:11:48;;;;;;;17.23;6.15;;;12.10;55.30;;;;;;5055973;28;20041;-35
2021/10/23 03:14:14;;;;;;;10.15;6.47;;;12.10;55.20;;;;;;5056158;28;20119;-40
2021/10/23 03:16:40;;;;;;;12.85;5.93;;;12.10;55.20;;;;;;5055784;28;20029;-35
2021/10/23 03:19:05;;;;;;;10.82;5.95;;;12.20;55.30;;;;;;5055972;28;20481;-39
2021/10/23 03:21:31;;;;;;;13.93;6.50;;;12.10;55.20;;;;;;5055697;28;20128;-35
2021/10/23 03:23:57;;;;;;;13.27;6.22;;;12.10;55.20;;;;;;5055946;28;20295;-39
2021/10/23 03:26:22;;;;;;;14.55;5.90;;;12.10;55.20;;;;;;5054422;28;20025;-35
2021/10/23 03:28:48;;;;;;;10.50;5.60;;;12.10;55.70;;;;;;5055969;28;20045;-39
2021/10/23 03:31:14;;;;;;;22.50;6.63;;;12.10;55.10;;;;;;5054283;28;20058;-42
2021/10/23 03:33:40;;;;;;;14.00;6.03;;;12.10;55.10;;;;;;5055737;28;20033;-40
2021/10/23 03:36:06;;;;;;;12.57;6.50;;;12.10;55.30;;;;;;5055902;28;20417;-39
2021/10/23 03:38:32;;;;;;;16.85;6.15;;;12.10;55.30;;;;;;5055806;28;20029;-35
2021/10/23 03:40:58;;;;;;;14.98;7.00;;;12.00;55.20;;;;;;5055934;28;20029;-40
2021/10/23 03:43:24;;;;;;;16.17;7.30;;;12.00;55.30;;;;;;5055691;28;20095;-35
2021/10/23 03:45:49;;;;;;;18.75;6.13;;;12.00;55.30;;;;;;5055644;28;20072;-40
2021/10/23 03:48:15;;;;;;;20.25;8.45;;;12.00;55.40;;;;;;5055654;28;20033;-41
2021/10/23 03:50:41;;;;;;;16.92;6.65;;;12.00;55.40;;;;;;5055387;28;20049;-41
2021/10/23 03:53:06;;;;;;;21.38;7.25;;;12.00;55.50;;;;;;5055554;28;20029;-35
2021/10/23 03:55:32;;;;;;;15.25;6.90;;;11.90;55.60;;;;;;5055366;28;20147;-36
2021/10/23 03:57:58;;;;;;;15.38;7.32;;;11.90;55.70;;;;;;5055727;28;20356;-39
2021/10/23 04:00:24;;;;;;;13.02;7.40;;;11.80;55.80;;;;;;5055769;28;20025;-39
2021/10/23 04:02:49;;;;;;;10.88;6.18;;;11.80;56.00;;;;;;5055587;28;20044;-39
2021/10/23 04:05:15;;;;;;;15.25;6.63;;;11.70;55.90;;;;;;5055711;28;20028;-35
2021/10/23 04:07:41;;;;;;;13.95;6.07;;;11.60;56.10;;;;;;5055571;28;20033;-35
2021/10/23 04:10:07;;;;;;;13.43;6.22;;;11.60;56.10;;;;;;5055639;28;20049;-40
2021/10/23 04:12:33;;;;;;;11.43;6.30;;;11.60;56.30;;;;;;5055441;28;20126;-40
2021/10/23 04:15:00;;;;;;;15.60;6.72;;;11.50;56.40;;;;;;5056487;28;20417;-35
2021/10/23 04:17:26;;;;;;;23.90;7.65;;;11.50;56.40;;;;;;5057880;28;20040;-39
2021/10/23 04:19:52;;;;;;;13.00;6.07;;;11.50;56.40;;;;;;5059380;28;20029;-40
2021/10/23 04:22:18;;;;;;;24.35;7.15;;;11.50;56.40;;;;;;5059253;28;20413;-36
2021/10/23 04:24:44;;;;;;;16.90;6.68;;;11.50;56.60;;;;;;5059177;28;20021;-34
2021/10/23 04:27:09;;;;;;;18.10;7.18;;;11.40;56.60;;;;;;5059044;28;20453;-38
2021/10/23 04:29:36;;;;;;;14.15;6.97;;;11.40;56.60;;;;;;5059017;28;20115;-34
2021/10/23 04:32:02;;;;;;;16.17;6.90;;;11.40;56.80;;;;;;5058953;28;20032;-34
2021/10/23 04:34:28;;;;;;;18.38;7.80;;;11.40;56.80;;;;;;5058715;28;20086;-39
2021/10/23 04:36:54;;;;;;;17.27;6.28;;;11.30;56.90;;;;;;5057812;28;20117;-38
2021/10/23 04:39:20;;;;;;;14.40;7.10;;;11.30;57.00;;;;;;5058903;28;20120;-39
2021/10/23 04:41:45;;;;;;;19.75;7.50;;;11.20;57.00;;;;;;5058575;28;20113;-34
2021/10/23 04:44:11;;;;;;;22.77;7.40;;;11.20;57.10;;;;;;5058914;28;20090;-34
2021/10/23 04:46:36;;;;;;;12.93;5.90;;;11.20;57.20;;;;;;5058341;28;20040;-39
2021/10/23 04:49:02;;;;;;;13.07;6.55;;;11.20;57.30;;;;;;5059083;28;20421;-34
2021/10/23 04:51:28;;;;;;;16.08;6.38;;;11.10;57.20;;;;;;5058302;28;20025;-40
2021/10/23 04:53:53;;;;;;;13.95;6.55;;;11.10;57.30;;;;;;5057427;28;20033;-40
2021/10/23 04:56:19;;;;;;;13.20;6.80;;;11.10;57.50;;;;;;5058142;28;20429;-34
2021/10/23 04:58:45;;;;;;;32.38;14.90;;;11.10;57.50;;;;;;5058538;28;20033;-39
2021/10/23 05:01:12;;;;;;;29.23;8.18;;;11.10;57.60;;;;;;5058108;28;20029;-40
2021/10/23 05:03:37;;;;;;;20.63;7.22;;;11.10;57.60;;;;;;5058824;28;20328;-40
2021/10/23 05:06:03;;;;;;;21.55;8.18;;;11.10;58.30;;;;;;5058320;28;20027;-39
2021/10/23 05:08:29;;;;;;;17.08;7.22;;;11.00;57.70;;;;;;5058462;28;20033;-40
2021/10/23 05:10:54;;;;;;;43.80;8.30;;;11.00;57.70;;;;;;5058450;28;20357;-41
2021/10/23 05:13:20;;;;;;;17.08;6.35;;;11.10;57.90;;;;;;5057923;28;20310;-35
2021/10/23 05:15:46;;;;;;;29.00;7.72;;;11.10;57.90;;;;;;5057930;28;20389;-35
2021/10/23 05:18:11;;;;;;;18.88;6.38;;;11.10;57.90;;;;;;5058217;28;20033;-35
2021/10/23 05:20:37;;;;;;;16.02;6.90;;;11.10;57.60;;;;;;5057818;28;20060;-35
2021/10/23 05:23:03;;;;;;;12.90;5.85;;;11.10;57.60;;;;;;5054732;28;20025;-41
2021/10/23 05:25:29;;;;;;;19.77;7.53;;;11.10;58.10;;;;;;5057920;28;20449;-34
2021/10/23 05:27:54;;;;;;;15.32;6.68;;;11.20;57.50;;;;;;5057839;28;20065;-41
2021/10/23 05:30:20;;;;;;;17.67;7.05;;;11.20;57.50;;;;;;5057468;28;20048;-40
2021/10/23 05:32:46;;;;;;;25.55;7.47;;;11.30;57.40;;;;;;5057440;28;20397;-40
2021/10/23 05:35:11;;;;;;;22.48;6.70;;;11.30;57.20;;;;;;5057512;28;20043;-40
2021/10/23 05:37:37;;;;;;;16.10;5.53;;;11.40;57.10;;;;;;5050864;28;20402;-34
2021/10/23 05:40:03;;;;;;;17.52;6.50;;;11.40;56.90;;;;;;5044874;28;20025;-35
2021/10/23 05:42:29;;;;;;;15.40;5.40;;;11.50;56.60;;;;;;5036603;28;20479;-34
2021/10/23 05:44:54;;;;;;;12.52;5.47;;;11.50;56.50;;;;;;5037169;28;20029;-36
2021/10/23 05:47:20;;;;;;;10.85;4.97;;;11.60;56.40;;;;;;5037311;28;20120;-40
2021/10/23 05:49:46;;;;;;;14.63;6.13;;;11.60;56.10;;;;;;5037178;28;20025;-34
2021/10/23 05:52:11;;;;;;;14.52;6.25;;;11.70;56.00;;;;;;5036946;28;20197;-41
2021/10/23 05:54:37;;;;;;;13.05;5.00;;;11.70;55.80;;;;;;5036824;28;20108;-39
2021/10/23 05:57:10;;;;;;;23.10;6.35;;;11.80;55.50;;;;;;5037177;28;20053;-37
2021/10/23 05:59:40;;;;;;;37.22;10.32;;;11.90;55.50;;;;;;5036657;28;20109;-40
2021/10/23 06:04:48;;;;;;;16.35;7.55;;;12.00;55.10;;;;;;5037208;28;20079;-41
2021/10/23 06:07:15;;;;;;;27.70;8.35;;;12.10;55.20;;;;;;5036830;28;20025;-34
2021/10/23 06:09:41;;;;;;;15.63;7.28;;;12.10;55.30;;;;;;5037118;28;20087;-34
2021/10/23 06:12:06;;;;;;;24.73;8.50;;;12.10;54.90;;;;;;5036981;28;20103;-34
2021/10/23 06:14:32;;;;;;;22.90;11.75;;;12.20;54.90;;;;;;5036329;28;20069;-39
2021/10/23 06:16:58;;;;;;;42.08;13.95;;;12.20;54.80;;;;;;5036784;28;20036;-41
2021/10/23 06:19:23;;;;;;;19.23;8.05;;;12.30;54.70;;;;;;5036230;28;20116;-34
2021/10/23 06:21:49;;;;;;;18.67;8.88;;;12.30;54.90;;;;;;5036191;28;20064;-33
2021/10/23 06:24:15;;;;;;;17.42;8.30;;;12.30;54.80;;;;;;5050900;28;20021;-34
2021/10/23 06:26:40;;;;;;;19.83;8.63;;;12.30;54.40;;;;;;5053818;28;20041;-41
2021/10/23 06:29:06;;;;;;;21.85;9.40;;;12.40;54.30;;;;;;5036410;28;20052;-41
2021/10/23 06:31:31;;;;;;;26.83;11.43;;;12.40;54.20;;;;;;5036125;28;20041;-40
2021/10/23 06:33:57;;;;;;;30.63;9.48;;;12.40;54.40;;;;;;5036184;28;20040;-35
2021/10/23 06:36:23;;;;;;;18.40;8.48;;;12.40;54.20;;;;;;5036387;28;20039;-34
2021/10/23 06:38:48;;;;;;;19.25;9.48;;;12.40;54.10;;;;;;5035739;28;20306;-35
2021/10/23 06:41:14;;;;;;;23.08;8.65;;;12.40;53.90;;;;;;5034796;28;20432;-35
2021/10/23 06:43:40;;;;;;;15.70;7.88;;;12.40;53.80;;;;;;5036661;28;20314;-40
2021/10/23 06:46:05;;;;;;;25.05;8.68;;;12.40;53.50;;;;;;5036499;28;20386;-40
2021/10/23 06:48:31;;;;;;;27.30;8.75;;;12.40;53.70;;;;;;5035609;28;20108;-41
2021/10/23 06:50:57;;;;;;;28.63;8.75;;;12.40;54.00;;;;;;5036010;28;20568;-36
2021/10/23 06:53:22;;;;;;;17.83;6.82;;;12.40;54.00;;;;;;5036009;28;20033;-34
2021/10/23 06:55:48;;;;;;;17.20;6.40;;;12.40;53.80;;;;;;5036107;28;20033;-40
2021/10/23 06:58:14;;;;;;;15.40;6.95;;;12.40;53.70;;;;;;5035796;28;20426;-41
2021/10/23 07:00:39;;;;;;;17.52;6.88;;;12.40;53.60;;;;;;5035724;28;20025;-35
2021/10/23 07:03:05;;;;;;;18.73;7.90;;;12.50;53.90;;;;;;5035623;28;20037;-39
2021/10/23 07:05:31;;;;;;;30.05;9.05;;;12.50;54.20;;;;;;5035748;28;20033;-34
2021/10/23 07:07:58;;;;;;;18.83;9.23;;;12.50;54.40;;;;;;5035841;28;20040;-35
2021/10/23 07:10:24;;;;;;;24.70;11.48;;;12.50;54.60;;;;;;5035764;28;20116;-34
2021/10/23 07:12:51;;;;;;;27.75;12.63;;;12.50;55.10;;;;;;5035243;28;20037;-34
2021/10/23 07:15:17;;;;;;;23.63;11.80;;;12.50;55.70;;;;;;5036034;28;20117;-40
2021/10/23 07:17:42;;;;;;;22.38;12.13;;;12.50;56.40;;;;;;5035586;28;20069;-41
2021/10/23 07:20:09;;;;;;;25.98;11.95;;;12.50;56.90;;;;;;5035659;28;20064;-40
2021/10/23 07:22:35;;;;;;;26.98;12.60;;;12.50;57.40;;;;;;5035233;28;20044;-41
2021/10/23 07:25:02;;;;;;;36.63;14.68;;;12.50;57.90;;;;;;5035372;28;20030;-38
2021/10/23 07:27:27;;;;;;;22.90;11.15;;;12.50;57.80;;;;;;5035464;28;20037;-36
2021/10/23 07:29:53;;;;;;;26.77;10.23;;;12.50;57.30;;;;;;5035454;28;20311;-34
2021/10/23 07:32:19;;;;;;;28.25;11.77;;;12.50;56.70;;;;;;5035457;28;20377;-39
2021/10/23 07:34:44;;;;;;;24.50;11.45;;;12.40;57.00;;;;;;5035101;28;20318;-40
2021/10/23 07:37:10;;;;;;;22.52;11.43;;;12.40;57.40;;;;;;5035431;28;20124;-34
2021/10/23 07:39:36;;;;;;;21.48;11.63;;;12.40;57.80;;;;;;5035600;28;20175;-34
2021/10/23 07:42:02;;;;;;;21.10;10.07;;;12.30;58.20;;;;;;5035343;28;20048;-35
2021/10/23 07:44:28;;;;;;;28.40;11.45;;;12.30;59.00;;;;;;5035039;28;20045;-39
2021/10/23 07:46:54;;;;;;;24.17;10.38;;;12.30;59.40;;;;;;5035465;28;20068;-35
2021/10/23 07:49:20;;;;;;;29.95;11.68;;;12.20;59.60;;;;;;5035036;28;20030;-40
2021/10/23 07:51:45;;;;;;;32.53;13.15;;;12.20;59.50;;;;;;5034970;28;20314;-34
2021/10/23 07:54:11;;;;;;;30.42;12.32;;;12.10;59.60;;;;;;5035182;28;20108;-40
2021/10/23 07:56:38;;;;;;;40.53;12.15;;;12.10;59.80;;;;;;5034600;28;20120;-35
2021/10/23 07:59:04;;;;;;;28.27;11.35;;;12.10;60.10;;;;;;5035033;28;20029;-36
2021/10/23 08:01:29;;;;;;;23.88;11.23;;;12.10;59.90;;;;;;5033691;28;20060;-34
2021/10/23 08:03:56;;;;;;;28.80;10.68;;;12.20;59.70;;;;;;5034981;28;20453;-35
2021/10/23 08:06:22;;;;;;;13.20;5.70;;;12.20;58.70;;;;;;5034751;28;20026;-35
2021/10/23 08:08:48;;;;;;;35.38;11.35;;;12.20;56.60;;;;;;5035211;28;20087;-41
2021/10/23 08:11:14;;;;;;;8.90;4.55;;;12.30;55.90;;;;;;5035066;28;20378;-35
2021/10/23 08:13:39;;;;;;;23.02;7.88;;;12.30;54.10;;;;;;5035209;28;20369;-36
2021/10/23 08:16:05;;;;;;;17.77;7.78;;;12.40;54.00;;;;;;5039979;28;20404;-40
2021/10/23 08:18:32;;;;;;;28.75;16.85;;;12.50;53.50;;;;;;5054078;28;20432;-39
2021/10/23 08:21:00;;;;;;;37.38;9.50;;;12.50;52.90;;;;;;5055030;28;20155;-35
2021/10/23 08:23:27;;;;;;;13.25;4.57;;;12.50;52.80;;;;;;5054698;28;20033;-35
2021/10/23 08:25:54;;;;;;;23.83;7.22;;;12.60;52.20;;;;;;5054709;28;20078;-35
2021/10/23 08:28:21;;;;;;;9.48;4.60;;;12.70;52.10;;;;;;5055150;28;20104;-39
2021/10/23 08:30:47;;;;;;;21.92;6.72;;;12.70;52.00;;;;;;5054979;28;20082;-42
2021/10/23 08:33:13;;;;;;;19.02;5.43;;;12.80;51.80;;;;;;5054895;28;20036;-34
2021/10/23 08:35:39;;;;;;;10.15;4.38;;;12.90;51.20;;;;;;5054889;28;20040;-35
2021/10/23 08:38:05;;;;;;;10.27;4.78;;;12.90;50.60;;;;;;5054727;28;20221;-34
2021/10/23 08:40:31;;;;;;;14.15;6.53;;;13.00;50.20;;;;;;5054676;28;20041;-40
2021/10/23 08:42:57;;;;;;;11.90;5.00;;;13.00;49.90;;;;;;5055069;28;20040;-35
2021/10/23 08:45:23;;;;;;;18.08;7.63;;;13.10;49.70;;;;;;5054623;28;20033;-40
2021/10/23 08:47:49;;;;;;;10.88;4.60;;;13.10;49.70;;;;;;5052264;28;20033;-40
2021/10/23 08:50:23;;;;;;;18.35;5.32;;;13.10;49.40;;;;;;5054421;28;20041;-34
2021/10/23 08:52:52;;;;;;;18.00;5.80;;;13.10;49.40;;;;;;5052955;28;20106;-34
2021/10/23 08:55:19;;;;;;;12.35;4.95;;;13.10;49.20;;;;;;5048000;28;20041;-41
2021/10/23 08:57:45;;;;;;;14.20;5.30;;;13.20;49.40;;;;;;5037109;28;20103;-33
2021/10/23 09:00:12;;;;;;;8.70;4.18;;;13.20;49.30;;;;;;5034863;28;20037;-40
2021/10/23 09:02:38;;;;;;;12.50;5.78;;;13.20;48.70;;;;;;5036993;28;20029;-40
2021/10/23 09:05:04;;;;;;;19.80;6.68;;;13.30;48.70;;;;;;5037075;28;20473;-34
2021/10/23 09:07:32;;;;;;;12.63;6.03;;;13.30;48.50;;;;;;5038148;28;20116;-39
2021/10/23 09:10:03;;;;;;;19.67;8.70;;;13.30;48.20;;;;;;5050060;28;20041;-33
2021/10/23 09:12:31;;;;;;;15.50;7.20;;;13.30;48.40;;;;;;5057407;28;20066;-39
2021/10/23 09:15:10;;;;;;;11.57;5.10;;;13.30;48.40;;;;;;5057767;28;20314;-39
2021/10/23 09:17:38;;;;;;;16.63;6.78;;;13.30;48.00;;;;;;5057690;28;20416;-33
2021/10/23 09:20:10;;;;;;;14.93;6.35;;;13.30;48.20;;;;;;5057689;28;20025;-40
2021/10/23 09:22:43;;;;;;;23.85;7.50;;;13.30;48.10;;;;;;5057379;28;20021;-34
2021/10/23 09:25:17;;;;;;;12.63;4.78;;;13.30;48.20;;;;;;5057184;28;20089;-34
2021/10/23 09:28:00;;;;;;;12.07;5.13;;;13.40;48.20;;;;;;5057507;28;20436;-34
2021/10/23 09:30:38;;;;;;;13.63;6.53;;;13.40;48.10;;;;;;5057611;28;20435;-36
2021/10/23 09:33:09;;;;;;;13.70;6.82;;;13.50;48.10;;;;;;5057292;28;20075;-41
2021/10/23 09:35:39;;;;;;;11.85;6.93;;;13.50;48.10;;;;;;5057538;28;20033;-34
2021/10/23 09:38:05;;;;;;;20.48;7.70;;;13.60;48.00;;;;;;5057418;28;20029;-34
2021/10/23 09:40:31;;;;;;;21.23;8.80;;;13.70;48.10;;;;;;5054999;28;20311;-41
2021/10/23 09:43:04;;;;;;;15.07;6.93;;;13.70;47.90;;;;;;5057542;28;20036;-35
2021/10/23 09:45:30;;;;;;;14.85;5.80;;;13.90;47.80;;;;;;5057420;28;20106;-40
2021/10/23 09:48:07;;;;;;;14.73;6.25;;;13.90;47.90;;;;;;5057088;28;20461;-34
2021/10/23 09:50:33;;;;;;;19.63;7.15;;;14.00;47.30;;;;;;5056394;28;20033;-35
2021/10/23 09:53:09;;;;;;;19.23;5.53;;;14.00;47.20;;;;;;5055972;28;20028;-34
2021/10/23 09:55:54;;;;;;;13.30;5.85;;;14.00;47.00;;;;;;5057072;28;20041;-34
2021/10/23 09:58:21;;;;;;;11.85;5.38;;;14.10;46.90;;;;;;5056567;28;20041;-34
2021/10/23 10:00:48;;;;;;;15.80;6.38;;;14.10;46.60;;;;;;5057005;28;20025;-34
2021/10/23 10:03:15;;;;;;;26.67;6.47;;;14.10;46.80;;;;;;5057089;28;20032;-41
2021/10/23 10:05:41;;;;;;;10.25;4.68;;;14.20;46.50;;;;;;5057186;28;20188;-40
2021/10/23 10:08:09;;;;;;;10.32;4.28;;;14.20;46.30;;;;;;5037783;28;20065;-33
2021/10/23 10:10:37;;;;;;;9.50;4.82;;;14.20;46.40;;;;;;5049844;28;20048;-33
2021/10/23 10:13:03;;;;;;;13.50;5.97;;;14.20;46.10;;;;;;5041544;28;20041;-39
2021/10/23 10:15:30;;;;;;;26.60;5.38;;;14.20;46.10;;;;;;5036668;28;20056;-40
2021/10/23 10:18:03;;;;;;;15.13;6.50;;;14.20;46.30;;;;;;5036698;28;20114;-40
2021/10/23 10:20:30;;;;;;;15.38;5.97;;;14.20;46.50;;;;;;5036530;28;20406;-39
2021/10/23 10:22:57;;;;;;;11.90;5.13;;;14.20;46.30;;;;;;5036355;28;20025;-34
2021/10/23 10:25:24;;;;;;;16.23;4.88;;;14.20;46.30;;;;;;5035553;28;20034;-40
2021/10/23 10:27:53;;;;;;;10.55;4.68;;;14.20;46.30;;;;;;5036725;28;20033;-39
2021/10/23 10:30:36;;;;;;;17.30;5.50;;;14.20;46.20;;;;;;5036600;28;20119;-34
2021/10/23 10:33:24;;;;;;;18.20;6.75;;;14.20;46.50;;;;;;5036402;28;20049;-34
2021/10/23 10:44:14;;;;;;;14.98;5.55;;;14.20;46.90;;;;;;5036436;28;20088;-34
2021/10/23 10:46:54;;;;;;;11.07;5.20;;;14.30;47.00;;;;;;5035644;28;20028;-34
2021/10/23 10:49:41;;;;;;;13.82;6.13;;;14.40;47.40;;;;;;5035732;28;20466;-33
2021/10/23 10:52:41;;;;;;;26.67;6.65;;;14.50;47.10;;;;;;5035935;28;20040;-33
2021/10/23 10:55:16;;;;;;;14.77;5.55;;;14.60;46.90;;;;;;5035861;28;20037;-34
2021/10/23 10:58:15;;;;;;;10.45;4.93;;;14.60;46.50;;;;;;5035429;28;20060;-34
2021/10/23 11:00:46;;;;;;;9.18;4.68;;;14.60;45.90;;;;;;5045610;28;20461;-39
2021/10/23 11:03:38;;;;;;;16.55;6.28;;;14.70;45.90;;;;;;5035853;28;20032;-34
2021/10/23 11:06:32;;;;;;;10.68;4.30;;;14.70;45.50;;;;;;5035642;28;20029;-39
2021/10/23 11:09:15;;;;;;;19.58;5.03;;;14.80;45.40;;;;;;5035895;28;20376;-33
2021/10/23 11:11:44;;;;;;;8.88;4.05;;;14.80;44.50;;;;;;5035555;28;20456;-39
2021/10/23 11:14:35;;;;;;;8.77;4.07;;;14.90;44.80;;;;;;5035761;28;20116;-41
2021/10/23 11:17:01;;;;;;;10.23;4.10;;;15.00;44.60;;;;;;5035865;28;20036;-34
2021/10/23 11:19:47;;;;;;;10.25;4.63;;;15.10;44.80;;;;;;5035685;28;20038;-34
2021/10/23 11:22:33;;;;;;;9.77;4.13;;;15.20;44.50;;;;;;5035401;28;20032;-35
2021/10/23 11:25:07;;;;;;;10.82;4.80;;;15.30;44.30;;;;;;5035643;28;20037;-41
2021/10/23 11:27:42;;;;;;;9.32;4.72;;;15.40;44.40;;;;;;5035595;28;20033;-39
2021/10/23 11:30:09;;;;;;;15.85;4.72;;;15.50;43.80;;;;;;5035578;28;20104;-35
2021/10/23 11:32:38;;;;;;;9.05;4.43;;;15.60;43.60;;;;;;5034693;28;20017;-34
2021/10/23 11:35:06;;;;;;;18.02;4.82;;;15.70;43.40;;;;;;5035424;28;20095;-33
2021/10/23 11:37:32;;;;;;;20.42;5.18;;;15.70;43.60;;;;;;5035179;28;20030;-33
2021/10/23 11:40:03;;;;;;;9.25;4.38;;;15.80;43.40;;;;;;5035680;28;20032;-34
2021/10/23 11:42:34;;;;;;;10.73;5.00;;;15.90;43.30;;;;;;5035552;28;20031;-34
2021/10/23 11:45:11;;;;;;;10.93;4.75;;;16.00;43.10;;;;;;5035773;28;20084;-34
2021/10/23 11:47:37;;;;;;;11.35;4.47;;;16.10;42.80;;;;;;5035447;28;20414;-39
2021/10/23 11:50:07;;;;;;;10.05;5.28;;;16.20;42.90;;;;;;5035386;28;20112;-34
2021/10/23 11:52:34;;;;;;;11.40;4.60;;;16.30;43.00;;;;;;5035299;28;20025;-34
2021/10/23 11:55:00;;;;;;;11.13;4.43;;;16.40;42.60;;;;;;5035252;28;20219;-35
2021/10/23 11:57:56;;;;;;;10.95;4.43;;;16.60;42.30;;;;;;5034877;28;20411;-34
2021/10/23 12:00:22;;;;;;;8.38;4.40;;;16.80;41.80;;;;;;5035407;28;20041;-40
2021/10/23 12:02:59;;;;;;;15.00;4.40;;;17.00;41.80;;;;;;5035144;28;20087;-40
2021/10/23 12:05:35;;;;;;;11.32;3.33;;;17.20;41.30;;;;;;5035213;28;20092;-40
2021/10/23 12:08:24;;;;;;;14.10;4.38;;;17.30;40.50;;;;;;5035387;28;20124;-40
2021/10/23 12:11:18;;;;;;;7.77;3.10;;;17.50;40.30;;;;;;5035767;28;20065;-34
2021/10/23 12:14:04;;;;;;;12.00;3.30;;;17.60;39.10;;;;;;5035460;28;20262;-40
2021/10/23 12:16:47;;;;;;;9.85;4.40;;;17.80;39.20;;;;;;5034751;28;20147;-34
2021/10/23 12:19:17;;;;;;;10.23;3.55;;;17.90;38.50;;;;;;5035032;28;20069;-34
2021/10/23 12:21:54;;;;;;;9.10;3.37;;;17.90;38.60;;;;;;5034709;28;20026;-33
2021/10/23 12:24:25;;;;;;;9.10;2.90;;;18.00;38.20;;;;;;5033904;28;20037;-40
2021/10/23 12:27:06;;;;;;;12.20;3.90;;;18.00;37.80;;;;;;5034716;28;20052;-33
2021/10/23 12:29:36;;;;;;;11.23;3.97;;;18.00;37.40;;;;;;5035148;28;20065;-33
2021/10/23 12:32:05;;;;;;;5.85;3.55;;;18.00;37.60;;;;;;5034878;28;20373;-33
2021/10/23 12:34:52;;;;;;;8.70;3.17;;;17.90;37.80;;;;;;5035300;28;20084;-39
2021/10/23 12:37:27;;;;;;;11.18;3.58;;;17.80;37.00;;;;;;5038173;28;20029;-33
2021/10/23 12:40:05;;;;;;;9.57;3.08;;;17.70;37.30;;;;;;5038674;28;20087;-39
2021/10/23 12:42:32;;;;;;;6.43;3.45;;;17.80;37.30;;;;;;5038541;28;20129;-34
2021/10/23 12:44:58;;;;;;;6.68;3.17;;;17.90;37.40;;;;;;5038676;28;20137;-34
2021/10/23 12:47:24;;;;;;;6.10;2.60;;;18.00;37.10;;;;;;5038499;28;20052;-34
2021/10/23 12:49:49;;;;;;;7.03;2.95;;;18.10;37.00;;;;;;5038403;28;20426;-34
2021/10/23 12:52:15;;;;;;;11.30;3.80;;;18.30;36.90;;;;;;5037923;28;20376;-36